Time;durP1;ratioP1;P1;durP2;ratioP2;P2;SDS_P1;SDS_P2;PMS_P1;PMS_P2;Temp;Humidity;BMP_temperature;BMP_pressure;BME280_temperature;BME280_humidity;BME280_pressure;Samples;Min_cycle;Max_cycle;Signal;HPM_P1;HPM_P2
2021/03/12 00:01:07;;;;;;;6.15;1.00;;;;;;;;;;5092631;28;20107;-62
2021/03/12 00:03:35;;;;;;;2.15;0.68;;;;;;;;;;5092090;28;20035;-62
2021/03/12 00:06:04;;;;;;;3.53;0.90;;;;;;;;;;5091339;28;20335;-62
2021/03/12 00:08:35;;;;;;;3.47;1.23;;;;;;;;;;5091145;28;20028;-62
2021/03/12 00:11:01;;;;;;;;;;;;;;;;;;5094571;28;20028;-62
2021/03/12 00:13:27;;;;;;;2.08;0.88;;;;;;;;;;5091028;28;19919;-62
2021/03/12 00:15:54;;;;;;;3.05;0.80;;;;;;;;;;5090108;28;20046;-62
2021/03/12 00:18:33;;;;;;;3.92;1.30;;;;;;;;;;5092211;28;20027;-62
2021/03/12 00:20:59;;;;;;;3.55;1.00;;;;;;;;;;5092245;28;20044;-61
2021/03/12 00:23:25;;;;;;;3.90;0.80;;;;;;;;;;5090862;28;20042;-62
2021/03/12 00:25:50;;;;;;;11.10;1.27;;;;;;;;;;5090361;28;20028;-62
2021/03/12 00:28:17;;;;;;;2.80;0.90;;;;;;;;;;5090187;28;20036;-62
2021/03/12 00:30:44;;;;;;;5.32;1.30;;;;;;;;;;5089639;28;20042;-62
2021/03/12 00:33:10;;;;;;;4.38;1.23;;;;;;;;;;5089604;28;20046;-62
2021/03/12 00:35:37;;;;;;;3.78;1.30;;;;;;;;;;5089831;28;20540;-63
2021/03/12 00:38:03;;;;;;;3.80;0.98;;;;;;;;;;5091243;28;20385;-60
2021/03/12 00:40:33;;;;;;;7.35;1.30;;;;;;;;;;5089441;28;20052;-61
2021/03/12 00:42:59;;;;;;;7.15;1.35;;;;;;;;;;5089698;28;20065;-62
2021/03/12 00:45:27;;;;;;;5.20;1.40;;;;;;;;;;5091954;28;20024;-61
2021/03/12 00:47:52;;;;;;;6.55;1.50;;;;;;;;;;5090372;28;20039;-60
2021/03/12 00:50:22;;;;;;;5.75;1.25;;;;;;;;;;5089216;28;20020;-61
2021/03/12 00:52:48;;;;;;;6.05;1.30;;;;;;;;;;5091361;28;20028;-61
2021/03/12 00:55:13;;;;;;;3.92;1.20;;;;;;;;;;5091908;28;20073;-61
2021/03/12 00:57:39;;;;;;;2.65;0.90;;;;;;;;;;5088546;28;20047;-62
2021/03/12 01:00:05;;;;;;;2.92;0.90;;;;;;;;;;5091265;28;20024;-61
2021/03/12 01:02:31;;;;;;;6.88;1.23;;;;;;;;;;5090668;28;20043;-61
2021/03/12 01:04:56;;;;;;;3.90;1.00;;;;;;;;;;5087533;28;20506;-61
2021/03/12 01:07:22;;;;;;;6.40;1.25;;;;;;;;;;5089390;28;20032;-61
2021/03/12 01:09:48;;;;;;;6.97;1.55;;;;;;;;;;5089198;28;20036;-61
2021/03/12 01:12:14;;;;;;;4.10;1.20;;;;;;;;;;5089935;28;21070;-61
2021/03/12 01:14:39;;;;;;;4.75;1.23;;;;;;;;;;5087129;28;20036;-62
2021/03/12 01:17:05;;;;;;;4.50;1.10;;;;;;;;;;5089438;28;20044;-62
2021/03/12 01:19:30;;;;;;;3.17;0.82;;;;;;;;;;5090400;28;20024;-61
2021/03/12 01:21:56;;;;;;;6.18;1.40;;;;;;;;;;5093161;28;20114;-61
2021/03/12 01:24:22;;;;;;;5.35;1.10;;;;;;;;;;5094518;28;20043;-61
2021/03/12 01:26:47;;;;;;;4.57;0.93;;;;;;;;;;5094270;28;20032;-61
2021/03/12 01:29:13;;;;;;;7.07;2.95;;;;;;;;;;5093171;28;20051;-61
2021/03/12 01:31:38;;;;;;;5.10;1.75;;;;;;;;;;5092760;28;20453;-61
2021/03/12 01:34:04;;;;;;;7.47;1.33;;;;;;;;;;5095061;28;20051;-61
2021/03/12 01:36:29;;;;;;;7.28;1.50;;;;;;;;;;5093474;28;20028;-61
2021/03/12 01:38:54;;;;;;;4.57;1.58;;;;;;;;;;5093174;28;20206;-61
2021/03/12 01:41:20;;;;;;;3.97;1.33;;;;;;;;;;5093091;28;20124;-61
2021/03/12 01:43:45;;;;;;;6.20;1.60;;;;;;;;;;5092716;28;20032;-62
2021/03/12 01:46:11;;;;;;;3.10;1.10;;;;;;;;;;5092760;28;20117;-61
2021/03/12 01:48:36;;;;;;;4.13;1.35;;;;;;;;;;5094194;28;20035;-62
2021/03/12 01:51:04;;;;;;;6.68;1.52;;;;;;;;;;5092623;28;20072;-61
2021/03/12 01:53:32;;;;;;;4.18;1.30;;;;;;;;;;5093288;28;20044;-61
2021/03/12 01:55:58;;;;;;;5.22;1.50;;;;;;;;;;5093568;28;20040;-62
2021/03/12 01:58:24;;;;;;;3.08;1.00;;;;;;;;;;5093273;28;20038;-61
2021/03/12 02:00:50;;;;;;;3.63;0.95;;;;;;;;;;5094739;28;20032;-62
2021/03/12 02:03:17;;;;;;;5.35;1.48;;;;;;;;;;5093995;28;20118;-61
2021/03/12 02:05:43;;;;;;;2.80;0.77;;;;;;;;;;5096605;28;20105;-61
2021/03/12 02:08:09;;;;;;;5.28;1.33;;;;;;;;;;5092551;28;20453;-62
2021/03/12 02:10:35;;;;;;;6.65;1.25;;;;;;;;;;5094205;28;20138;-62
2021/03/12 02:13:07;;;;;;;5.43;1.15;;;;;;;;;;5093746;28;20051;-62
2021/03/12 02:15:39;;;;;;;4.05;1.88;;;;;;;;;;5092615;28;20118;-62
2021/03/12 02:18:19;;;;;;;4.10;1.20;;;;;;;;;;5093274;28;20031;-62
2021/03/12 02:20:58;;;;;;;7.30;1.92;;;;;;;;;;5092212;28;20109;-62
2021/03/12 02:23:51;;;;;;;4.05;1.27;;;;;;;;;;5093111;28;20055;-65
2021/03/12 02:26:35;;;;;;;6.97;1.33;;;;;;;;;;5092637;28;20422;-65
2021/03/12 02:29:05;;;;;;;3.63;1.10;;;;;;;;;;5093220;28;20571;-65
2021/03/12 02:31:32;;;;;;;4.22;1.00;;;;;;;;;;5091745;28;20054;-65
2021/03/12 02:33:58;;;;;;;4.28;1.33;;;;;;;;;;5091926;28;20040;-65
2021/03/12 02:36:28;;;;;;;7.68;1.45;;;;;;;;;;5092837;28;20050;-65
2021/03/12 02:38:56;;;;;;;8.68;1.67;;;;;;;;;;5091192;28;20146;-66
2021/03/12 02:41:25;;;;;;;4.38;0.93;;;;;;;;;;5092042;28;20152;-66
2021/03/12 02:43:51;;;;;;;4.78;1.60;;;;;;;;;;5092720;28;20032;-65
2021/03/12 02:46:19;;;;;;;1.95;0.70;;;;;;;;;;5090324;28;20128;-65
2021/03/12 02:48:45;;;;;;;5.25;1.42;;;;;;;;;;5093479;28;20092;-65
2021/03/12 02:51:12;;;;;;;4.15;1.17;;;;;;;;;;5092170;28;20069;-65
2021/03/12 02:53:38;;;;;;;2.50;0.95;;;;;;;;;;5092180;28;20420;-65
2021/03/12 02:56:04;;;;;;;5.45;1.75;;;;;;;;;;5091512;28;20074;-65
2021/03/12 02:58:31;;;;;;;5.28;1.17;;;;;;;;;;5091663;28;20473;-65
2021/03/12 03:01:06;;;;;;;3.70;0.95;;;;;;;;;;5091363;28;20040;-65
2021/03/12 03:03:34;;;;;;;3.50;1.10;;;;;;;;;;5090202;28;20044;-65
2021/03/12 03:06:01;;;;;;;6.30;1.98;;;;;;;;;;5093012;28;20428;-65
2021/03/12 03:08:28;;;;;;;4.82;1.55;;;;;;;;;;5097671;28;20020;-65
2021/03/12 03:10:56;;;;;;;4.78;1.20;;;;;;;;;;5094786;28;20035;-65
2021/03/12 03:13:22;;;;;;;3.58;0.98;;;;;;;;;;5091159;28;20460;-65
2021/03/12 03:15:48;;;;;;;5.10;1.00;;;;;;;;;;5092073;28;20075;-65
2021/03/12 03:18:14;;;;;;;3.45;0.98;;;;;;;;;;5094380;27;20365;-65
2021/03/12 03:20:39;;;;;;;7.10;1.60;;;;;;;;;;5090956;28;20043;-65
2021/03/12 03:23:05;;;;;;;4.32;1.42;;;;;;;;;;5091460;28;20108;-65
2021/03/12 03:25:30;;;;;;;5.35;1.40;;;;;;;;;;5091999;28;20050;-65
2021/03/12 03:27:56;;;;;;;3.72;1.02;;;;;;;;;;5091356;28;20036;-65
2021/03/12 03:30:22;;;;;;;5.80;1.20;;;;;;;;;;5091338;28;20020;-65
2021/03/12 03:32:47;;;;;;;3.40;1.10;;;;;;;;;;5090273;28;20028;-65
2021/03/12 03:35:13;;;;;;;4.63;1.30;;;;;;;;;;5091693;28;20036;-65
2021/03/12 03:37:39;;;;;;;5.18;1.75;;;;;;;;;;5091214;28;20050;-65
2021/03/12 03:40:07;;;;;;;9.02;1.67;;;;;;;;;;5092623;28;20032;-65
2021/03/12 03:42:34;;;;;;;4.63;1.27;;;;;;;;;;5088717;28;20052;-65
2021/03/12 03:45:00;;;;;;;6.95;1.55;;;;;;;;;;5091639;28;20097;-66
2021/03/12 03:47:28;;;;;;;10.65;1.52;;;;;;;;;;5089740;28;20319;-65
2021/03/12 03:49:53;;;;;;;3.35;1.35;;;;;;;;;;5091717;28;20266;-65
2021/03/12 03:52:23;;;;;;;4.38;1.08;;;;;;;;;;5089974;28;20036;-66
2021/03/12 03:54:50;;;;;;;6.47;1.42;;;;;;;;;;5092151;28;20028;-65
2021/03/12 03:57:17;;;;;;;5.00;1.25;;;;;;;;;;5089033;28;20036;-65
2021/03/12 03:59:44;;;;;;;8.20;1.65;;;;;;;;;;5088489;28;20116;-65
2021/03/12 04:02:14;;;;;;;5.45;1.58;;;;;;;;;;5091503;28;20047;-65
2021/03/12 04:04:42;;;;;;;5.55;1.85;;;;;;;;;;5092295;28;20028;-65
2021/03/12 04:07:09;;;;;;;6.57;1.38;;;;;;;;;;5091946;28;20497;-65
2021/03/12 04:09:35;;;;;;;7.75;1.60;;;;;;;;;;5089735;28;20093;-66
2021/03/12 04:12:01;;;;;;;3.95;1.45;;;;;;;;;;5092453;28;20322;-66
2021/03/12 04:14:27;;;;;;;6.68;1.45;;;;;;;;;;5091483;28;20038;-65
2021/03/12 04:16:53;;;;;;;5.32;1.42;;;;;;;;;;5091210;28;20028;-65
2021/03/12 04:19:19;;;;;;;11.57;1.98;;;;;;;;;;5092574;28;20078;-65
2021/03/12 04:21:46;;;;;;;6.43;1.42;;;;;;;;;;5094573;28;20523;-66
2021/03/12 04:24:12;;;;;;;5.63;1.70;;;;;;;;;;5090964;28;20085;-65
2021/03/12 04:26:38;;;;;;;7.68;1.98;;;;;;;;;;5090129;28;20024;-65
2021/03/12 04:29:04;;;;;;;6.13;1.75;;;;;;;;;;5089610;28;20096;-65
2021/03/12 04:31:30;;;;;;;5.20;1.50;;;;;;;;;;5090391;28;20023;-66
2021/03/12 04:33:56;;;;;;;6.50;1.67;;;;;;;;;;5090062;28;20032;-65
2021/03/12 04:36:22;;;;;;;6.45;1.30;;;;;;;;;;5089794;28;20024;-65
2021/03/12 04:38:48;;;;;;;4.85;1.23;;;;;;;;;;5090544;28;20089;-66
2021/03/12 04:41:15;;;;;;;4.78;1.60;;;;;;;;;;5090235;28;20042;-66
2021/03/12 04:43:41;;;;;;;6.35;2.05;;;;;;;;;;5087864;28;20440;-65
2021/03/12 04:46:07;;;;;;;5.57;1.38;;;;;;;;;;5091486;28;20093;-65
2021/03/12 04:48:36;;;;;;;6.97;2.03;;;;;;;;;;5091607;28;20063;-65
2021/03/12 04:51:02;;;;;;;8.02;1.60;;;;;;;;;;5090574;28;20484;-65
2021/03/12 04:53:29;;;;;;;5.90;1.40;;;;;;;;;;5089448;28;20028;-66
2021/03/12 04:55:55;;;;;;;7.38;1.80;;;;;;;;;;5090191;28;20919;-65
2021/03/12 04:58:21;;;;;;;8.23;1.67;;;;;;;;;;5089387;28;20096;-65
2021/03/12 05:00:47;;;;;;;8.40;1.83;;;;;;;;;;5088106;28;20039;-65
2021/03/12 05:03:13;;;;;;;5.22;1.30;;;;;;;;;;5089210;28;20449;-65
2021/03/12 05:05:40;;;;;;;6.53;1.67;;;;;;;;;;5091174;28;20130;-66
2021/03/12 05:08:08;;;;;;;5.80;1.60;;;;;;;;;;5091107;28;20029;-66
2021/03/12 05:10:34;;;;;;;5.20;1.48;;;;;;;;;;5089755;28;20412;-66
2021/03/12 05:13:03;;;;;;;8.95;1.95;;;;;;;;;;5089746;28;20039;-66
2021/03/12 05:15:28;;;;;;;8.82;1.95;;;;;;;;;;5091077;28;20035;-66
2021/03/12 05:17:53;;;;;;;7.40;1.60;;;;;;;;;;5088658;28;20043;-65
2021/03/12 05:20:19;;;;;;;12.48;1.75;;;;;;;;;;5090924;28;20039;-66
2021/03/12 05:22:44;;;;;;;9.85;2.33;;;;;;;;;;5089240;28;20159;-66
2021/03/12 05:25:10;;;;;;;8.38;1.80;;;;;;;;;;5089485;28;20032;-66
2021/03/12 05:27:35;;;;;;;4.70;1.67;;;;;;;;;;5089638;28;20039;-66
2021/03/12 05:30:00;;;;;;;4.80;1.65;;;;;;;;;;5089880;28;20093;-66
2021/03/12 05:32:26;;;;;;;9.07;1.95;;;;;;;;;;5089597;28;20039;-66
2021/03/12 05:34:51;;;;;;;8.45;1.70;;;;;;;;;;5090842;28;20035;-66
2021/03/12 05:37:16;;;;;;;3.47;1.40;;;;;;;;;;5091243;28;20032;-66
2021/03/12 05:39:42;;;;;;;7.82;1.77;;;;;;;;;;5088965;28;20446;-66
2021/03/12 05:42:08;;;;;;;6.82;1.65;;;;;;;;;;5091604;28;20040;-66
2021/03/12 05:44:33;;;;;;;9.75;2.50;;;;;;;;;;5090025;28;20027;-66
2021/03/12 05:46:59;;;;;;;11.73;1.98;;;;;;;;;;5090870;28;20028;-66
2021/03/12 05:49:24;;;;;;;5.55;2.15;;;;;;;;;;5090615;28;20081;-66
2021/03/12 05:51:50;;;;;;;6.25;1.83;;;;;;;;;;5089157;28;20533;-66
2021/03/12 05:54:16;;;;;;;7.85;1.48;;;;;;;;;;5090851;28;20036;-66
2021/03/12 05:56:41;;;;;;;6.32;1.63;;;;;;;;;;5089076;28;20146;-66
2021/03/12 05:59:07;;;;;;;13.45;2.60;;;;;;;;;;5090241;28;20032;-66
2021/03/12 06:01:32;;;;;;;8.43;1.95;;;;;;;;;;5089547;28;20069;-66
2021/03/12 06:03:58;;;;;;;5.50;1.42;;;;;;;;;;5088707;28;20044;-66
2021/03/12 06:06:23;;;;;;;7.75;1.77;;;;;;;;;;5093959;28;20024;-66
2021/03/12 06:08:49;;;;;;;6.85;1.60;;;;;;;;;;5092406;28;20036;-65
2021/03/12 06:11:14;;;;;;;7.68;1.98;;;;;;;;;;5096204;28;20071;-66
2021/03/12 06:13:56;;;;;;;5.90;2.10;;;;;;;;;;5093745;28;20420;-66
2021/03/12 06:16:28;;;;;;;;;;;;;;;;;;5097417;28;20028;-66
2021/03/12 06:19:17;;;;;;;12.70;2.60;;;;;;;;;;5096951;28;19908;-67
2021/03/12 06:21:46;;;;;;;9.93;2.17;;;;;;;;;;5094324;28;20086;-66
2021/03/12 06:24:23;;;;;;;6.93;1.58;;;;;;;;;;5095375;28;20024;-66
2021/03/12 06:26:48;;;;;;;5.53;2.10;;;;;;;;;;5093518;28;20085;-66
2021/03/12 06:29:14;;;;;;;8.55;1.92;;;;;;;;;;5095504;28;20522;-65
2021/03/12 06:31:49;;;;;;;7.32;1.90;;;;;;;;;;5091358;28;20078;-66
2021/03/12 06:34:15;;;;;;;8.07;1.90;;;;;;;;;;5093722;28;20119;-65
2021/03/12 06:36:40;;;;;;;5.85;1.35;;;;;;;;;;5092847;28;20196;-65
2021/03/12 06:39:06;;;;;;;8.63;2.08;;;;;;;;;;5097030;28;20111;-65
2021/03/12 06:41:45;;;;;;;6.88;2.08;;;;;;;;;;5092311;28;20105;-66
2021/03/12 06:44:43;;;;;;;4.63;1.70;;;;;;;;;;5091325;28;20061;-66
2021/03/12 06:47:08;;;;;;;5.68;1.45;;;;;;;;;;5078770;28;20055;-66
2021/03/12 06:49:54;;;;;;;12.30;2.53;;;;;;;;;;5094911;28;20024;-66
2021/03/12 06:52:30;;;;;;;8.63;1.77;;;;;;;;;;5096551;28;20020;-66
2021/03/12 06:54:56;;;;;;;10.50;2.13;;;;;;;;;;5095943;28;20031;-66
2021/03/12 06:57:21;;;;;;;6.82;1.70;;;;;;;;;;5100364;28;20038;-65
2021/03/12 06:59:56;;;;;;;6.90;1.80;;;;;;;;;;5099691;28;20035;-65
2021/03/12 07:02:38;;;;;;;6.15;1.98;;;;;;;;;;5099714;28;20582;-68
2021/03/12 07:05:06;;;;;;;7.20;2.20;;;;;;;;;;5100119;28;20357;-65
2021/03/12 07:07:36;;;;;;;14.98;2.80;;;;;;;;;;5099348;28;20046;-66
2021/03/12 07:10:06;;;;;;;6.68;2.80;;;;;;;;;;5100626;28;20905;-65
2021/03/12 07:12:52;;;;;;;6.32;1.90;;;;;;;;;;5101736;28;20040;-65
2021/03/12 07:15:19;;;;;;;7.32;2.17;;;;;;;;;;5100370;28;20453;-66
2021/03/12 07:17:45;;;;;;;10.98;3.10;;;;;;;;;;5101122;28;20027;-66
2021/03/12 07:20:14;;;;;;;7.78;2.08;;;;;;;;;;5104881;28;20049;-67
2021/03/12 07:22:43;;;;;;;8.82;2.33;;;;;;;;;;5097934;28;20067;-67
2021/03/12 07:25:09;;;;;;;7.00;2.30;;;;;;;;;;5099557;28;20158;-66
2021/03/12 07:27:41;;;;;;;6.78;2.45;;;;;;;;;;5099786;28;20032;-66
2021/03/12 07:30:10;;;;;;;10.95;2.72;;;;;;;;;;5097739;28;20119;-66
2021/03/12 07:32:37;;;;;;;9.65;2.33;;;;;;;;;;5097870;28;20035;-66
2021/03/12 07:35:05;;;;;;;12.25;3.38;;;;;;;;;;5097402;28;20118;-65
2021/03/12 07:37:34;;;;;;;7.57;2.63;;;;;;;;;;5101295;28;20055;-65
2021/03/12 07:40:00;;;;;;;5.30;2.25;;;;;;;;;;5094964;28;20872;-66
2021/03/12 07:42:26;;;;;;;9.13;2.70;;;;;;;;;;5098916;27;20123;-66
2021/03/12 07:44:53;;;;;;;7.65;2.40;;;;;;;;;;5097097;28;20491;-65
2021/03/12 07:47:29;;;;;;;7.22;2.40;;;;;;;;;;5101679;28;20141;-65
2021/03/12 07:49:55;;;;;;;11.73;2.30;;;;;;;;;;5102452;27;20028;-65
2021/03/12 07:52:49;;;;;;;6.95;2.38;;;;;;;;;;5101173;28;20023;-65
2021/03/12 07:55:34;;;;;;;13.25;2.97;;;;;;;;;;5101723;28;20012;-66
2021/03/12 07:58:00;;;;;;;7.47;2.08;;;;;;;;;;5100798;28;20659;-65
2021/03/12 08:00:26;;;;;;;7.30;1.83;;;;;;;;;;5098999;28;20039;-65
2021/03/12 08:02:56;;;;;;;13.40;2.13;;;;;;;;;;5098890;27;20035;-65
2021/03/12 08:05:28;;;;;;;8.77;2.03;;;;;;;;;;5097810;28;20613;-65
2021/03/12 08:07:54;;;;;;;5.60;2.33;;;;;;;;;;5098756;28;20108;-66
2021/03/12 08:10:19;;;;;;;10.90;2.35;;;;;;;;;;5096969;28;20035;-65
2021/03/12 08:12:48;;;;;;;8.30;1.80;;;;;;;;;;5098683;28;20048;-65
2021/03/12 08:15:34;;;;;;;7.60;1.67;;;;;;;;;;5094929;28;20035;-66
2021/03/12 08:17:59;;;;;;;6.63;1.70;;;;;;;;;;5097693;28;20066;-66
2021/03/12 08:20:36;;;;;;;6.13;2.22;;;;;;;;;;5100489;28;20087;-65
2021/03/12 08:23:02;;;;;;;11.35;2.22;;;;;;;;;;5093632;28;20061;-66
2021/03/12 08:25:31;;;;;;;7.78;2.05;;;;;;;;;;5101609;28;20111;-66
2021/03/12 08:27:57;;;;;;;5.93;1.73;;;;;;;;;;5097903;28;20036;-67
2021/03/12 08:30:25;;;;;;;11.75;2.22;;;;;;;;;;5096428;28;20710;-67
2021/03/12 08:32:53;;;;;;;6.70;1.88;;;;;;;;;;5099368;28;20458;-66
2021/03/12 08:35:37;;;;;;;9.65;2.20;;;;;;;;;;5096053;28;20062;-66
2021/03/12 08:38:23;;;;;;;6.70;2.08;;;;;;;;;;5096346;28;20039;-66
2021/03/12 08:40:56;;;;;;;6.88;2.35;;;;;;;;;;5093696;28;20385;-66
2021/03/12 08:43:25;;;;;;;11.98;1.95;;;;;;;;;;5097491;28;20040;-66
2021/03/12 08:45:57;;;;;;;9.93;3.08;;;;;;;;;;5095394;28;20575;-67
2021/03/12 08:48:29;;;;;;;7.57;2.47;;;;;;;;;;5098828;28;20038;-67
2021/03/12 08:51:04;;;;;;;7.63;2.03;;;;;;;;;;5097930;28;20075;-66
2021/03/12 08:53:35;;;;;;;9.05;2.40;;;;;;;;;;5098008;28;20032;-66
2021/03/12 08:56:02;;;;;;;7.13;2.40;;;;;;;;;;5097277;28;20092;-66
2021/03/12 08:58:32;;;;;;;11.00;2.58;;;;;;;;;;5097758;28;20112;-67
2021/03/12 09:01:00;;;;;;;8.70;2.17;;;;;;;;;;5097368;28;20050;-67
2021/03/12 09:03:34;;;;;;;7.28;2.25;;;;;;;;;;5096392;28;20035;-67
2021/03/12 09:06:05;;;;;;;9.73;2.28;;;;;;;;;;5097832;28;20081;-67
2021/03/12 09:08:32;;;;;;;6.43;1.50;;;;;;;;;;5099046;28;20031;-68
2021/03/12 09:10:58;;;;;;;6.63;2.33;;;;;;;;;;5095906;28;20042;-67
2021/03/12 09:13:28;;;;;;;8.05;2.35;;;;;;;;;;5094489;28;20062;-67
2021/03/12 09:15:54;;;;;;;11.40;2.20;;;;;;;;;;5094666;28;20059;-67
2021/03/12 09:18:22;;;;;;;13.60;2.60;;;;;;;;;;5099346;28;20051;-68
2021/03/12 09:20:54;;;;;;;10.35;2.50;;;;;;;;;;5098664;28;20076;-68
2021/03/12 09:23:40;;;;;;;7.57;2.22;;;;;;;;;;5096065;28;20081;-67
2021/03/12 09:26:07;;;;;;;10.50;3.13;;;;;;;;;;5094602;28;20210;-67
2021/03/12 09:28:33;;;;;;;7.65;1.95;;;;;;;;;;5098539;28;20051;-68
2021/03/12 09:31:00;;;;;;;8.25;2.45;;;;;;;;;;5099018;28;20053;-67
2021/03/12 09:33:30;;;;;;;9.35;2.33;;;;;;;;;;5096781;28;20952;-67
2021/03/12 09:35:56;;;;;;;10.70;2.30;;;;;;;;;;5095411;28;20032;-67
2021/03/12 09:38:40;;;;;;;8.73;1.88;;;;;;;;;;5090228;28;20416;-68
2021/03/12 09:41:15;;;;;;;10.32;2.35;;;;;;;;;;5093975;28;20035;-61
2021/03/12 09:43:42;;;;;;;8.07;2.47;;;;;;;;;;5095082;28;20692;-69
2021/03/12 09:46:08;;;;;;;8.15;2.38;;;;;;;;;;5107410;28;20110;-60
2021/03/12 09:48:34;;;;;;;7.25;2.58;;;;;;;;;;5105992;28;20108;-60
2021/03/12 09:51:00;;;;;;;9.57;2.05;;;;;;;;;;5103256;27;20032;-59
2021/03/12 09:53:26;;;;;;;8.85;2.15;;;;;;;;;;5103845;28;20031;-65
2021/03/12 09:55:53;;;;;;;9.13;2.28;;;;;;;;;;5107395;28;20104;-58
2021/03/12 09:58:19;;;;;;;5.85;1.77;;;;;;;;;;5102400;28;20453;-59
2021/03/12 10:00:45;;;;;;;9.30;2.22;;;;;;;;;;5102992;28;20024;-67
2021/03/12 10:03:10;;;;;;;7.55;2.08;;;;;;;;;;5106256;28;20061;-58
2021/03/12 10:05:36;;;;;;;7.00;2.67;;;;;;;;;;5104162;28;20035;-65
2021/03/12 10:08:05;;;;;;;6.72;1.98;;;;;;;;;;5103589;28;20057;-65
2021/03/12 10:10:33;;;;;;;9.32;2.30;;;;;;;;;;5103901;28;20024;-66
2021/03/12 10:13:05;;;;;;;8.40;1.90;;;;;;;;;;5100146;28;20036;-64
2021/03/12 10:15:32;;;;;;;7.57;1.95;;;;;;;;;;5100220;28;20043;-64
2021/03/12 10:17:58;;;;;;;7.57;1.75;;;;;;;;;;5108465;28;20039;-64
2021/03/12 10:20:32;;;;;;;8.63;2.20;;;;;;;;;;5106226;28;20055;-65
2021/03/12 10:23:04;;;;;;;6.55;2.22;;;;;;;;;;5102142;28;20092;-64
2021/03/12 10:25:35;;;;;;;6.28;1.52;;;;;;;;;;5105284;28;20042;-64
2021/03/12 10:28:06;;;;;;;6.00;2.40;;;;;;;;;;5102885;28;20024;-63
2021/03/12 10:30:43;;;;;;;8.18;2.05;;;;;;;;;;5101304;28;20031;-66
2021/03/12 10:33:11;;;;;;;11.18;2.38;;;;;;;;;;5091519;28;20036;-64
2021/03/12 10:35:42;;;;;;;7.45;2.33;;;;;;;;;;5091325;28;20035;-65
2021/03/12 10:38:10;;;;;;;12.35;2.20;;;;;;;;;;5093186;28;20031;-65
2021/03/12 10:40:38;;;;;;;12.38;2.83;;;;;;;;;;5093100;28;20435;-65
2021/03/12 10:43:14;;;;;;;10.07;2.20;;;;;;;;;;5094677;28;20116;-65
2021/03/12 10:46:00;;;;;;;6.60;1.92;;;;;;;;;;5092693;28;20051;-64
2021/03/12 10:48:28;;;;;;;7.53;2.38;;;;;;;;;;5095025;28;20047;-64
2021/03/12 10:50:55;;;;;;;6.57;2.15;;;;;;;;;;5093772;28;20043;-65
2021/03/12 10:53:20;;;;;;;5.45;1.85;;;;;;;;;;5092042;28;20044;-66
2021/03/12 10:55:48;;;;;;;6.10;2.53;;;;;;;;;;5091174;28;20038;-64
2021/03/12 10:58:28;;;;;;;6.32;2.20;;;;;;;;;;5094682;28;20563;-65
2021/03/12 11:01:02;;;;;;;10.57;4.00;;;;;;;;;;5099863;28;20094;-64
2021/03/12 11:03:27;;;;;;;9.98;3.20;;;;;;;;;;5098558;28;20039;-64
2021/03/12 11:05:53;;;;;;;5.35;2.08;;;;;;;;;;5095545;27;20034;-64
2021/03/12 11:08:18;;;;;;;8.25;2.10;;;;;;;;;;5095780;28;20028;-65
2021/03/12 11:10:44;;;;;;;13.63;2.75;;;;;;;;;;5094651;28;20020;-64
2021/03/12 11:13:09;;;;;;;6.55;2.20;;;;;;;;;;5094201;28;20111;-64
2021/03/12 11:15:34;;;;;;;8.65;1.75;;;;;;;;;;5095976;28;20086;-64
2021/03/12 11:18:00;;;;;;;7.22;2.33;;;;;;;;;;5092018;28;20043;-65
2021/03/12 11:20:26;;;;;;;9.82;1.95;;;;;;;;;;5091203;28;20073;-65
2021/03/12 11:22:52;;;;;;;10.63;1.92;;;;;;;;;;5093101;28;20525;-65
2021/03/12 11:25:18;;;;;;;5.07;1.58;;;;;;;;;;5090959;28;20028;-64
2021/03/12 11:27:44;;;;;;;7.20;2.08;;;;;;;;;;5093209;28;20464;-64
2021/03/12 11:30:18;;;;;;;13.38;2.30;;;;;;;;;;5092833;28;20024;-64
2021/03/12 11:32:44;;;;;;;6.65;2.45;;;;;;;;;;5091691;28;20094;-66
2021/03/12 11:35:11;;;;;;;11.73;2.35;;;;;;;;;;5091595;28;20035;-68
2021/03/12 11:37:36;;;;;;;9.48;2.13;;;;;;;;;;5092415;28;20065;-66
2021/03/12 11:40:04;;;;;;;5.20;2.08;;;;;;;;;;5092640;28;20069;-65
2021/03/12 11:42:29;;;;;;;6.82;2.30;;;;;;;;;;5091639;28;20286;-66
2021/03/12 11:44:55;;;;;;;9.55;2.63;;;;;;;;;;5092212;28;20487;-66
2021/03/12 11:47:20;;;;;;;12.10;2.40;;;;;;;;;;5090980;28;20032;-65
2021/03/12 11:49:47;;;;;;;11.63;2.78;;;;;;;;;;5091492;28;20423;-66
2021/03/12 11:52:14;;;;;;;6.38;2.53;;;;;;;;;;5092344;28;20449;-66
2021/03/12 11:54:39;;;;;;;7.38;2.88;;;;;;;;;;5091739;28;20150;-66
2021/03/12 11:57:05;;;;;;;9.10;2.47;;;;;;;;;;5091824;28;20115;-66
2021/03/12 11:59:31;;;;;;;9.90;2.30;;;;;;;;;;5091400;28;20024;-65
2021/03/12 12:01:58;;;;;;;9.95;1.73;;;;;;;;;;5089703;28;20593;-65
2021/03/12 12:04:23;;;;;;;7.22;1.88;;;;;;;;;;5090658;28;20055;-66
2021/03/12 12:06:49;;;;;;;8.52;2.00;;;;;;;;;;5091107;28;20058;-66
2021/03/12 12:09:15;;;;;;;6.18;2.08;;;;;;;;;;5091798;28;20027;-66
2021/03/12 12:11:40;;;;;;;6.97;1.67;;;;;;;;;;5090252;28;20024;-65
2021/03/12 12:14:06;;;;;;;5.47;1.73;;;;;;;;;;5091935;28;20019;-62
2021/03/12 12:16:31;;;;;;;5.43;1.75;;;;;;;;;;5091085;28;20038;-62
2021/03/12 12:18:57;;;;;;;3.60;1.25;;;;;;;;;;5092503;28;20031;-63
2021/03/12 12:21:23;;;;;;;8.45;1.42;;;;;;;;;;5091324;28;20073;-62
2021/03/12 12:23:49;;;;;;;7.63;1.50;;;;;;;;;;5094049;28;20035;-63
2021/03/12 12:26:14;;;;;;;5.35;1.20;;;;;;;;;;5097557;28;20060;-63
2021/03/12 12:28:39;;;;;;;5.65;1.92;;;;;;;;;;5095228;28;20186;-62
2021/03/12 12:31:05;;;;;;;12.55;1.90;;;;;;;;;;5091450;28;20027;-62
2021/03/12 12:33:30;;;;;;;11.50;2.25;;;;;;;;;;5091390;28;20040;-62
2021/03/12 12:35:56;;;;;;;6.68;2.08;;;;;;;;;;5091107;28;20248;-62
2021/03/12 12:38:22;;;;;;;14.18;5.10;;;;;;;;;;5090687;28;20036;-62
2021/03/12 12:40:47;;;;;;;5.05;2.13;;;;;;;;;;5094226;28;20061;-64
2021/03/12 12:43:13;;;;;;;6.47;1.63;;;;;;;;;;5091795;28;20092;-64
2021/03/12 12:45:38;;;;;;;14.45;2.45;;;;;;;;;;5090339;28;20031;-64
2021/03/12 12:48:04;;;;;;;6.78;1.42;;;;;;;;;;5092099;28;20035;-64
2021/03/12 12:50:30;;;;;;;4.80;1.63;;;;;;;;;;5094366;28;20031;-63
2021/03/12 12:52:56;;;;;;;4.28;1.52;;;;;;;;;;5095703;28;20342;-63
2021/03/12 12:55:22;;;;;;;5.50;1.77;;;;;;;;;;5090685;28;20032;-63
2021/03/12 12:57:47;;;;;;;10.00;1.98;;;;;;;;;;5093704;28;20046;-63
2021/03/12 13:00:13;;;;;;;7.63;1.33;;;;;;;;;;5090343;28;20502;-64
2021/03/12 13:02:39;;;;;;;6.22;2.35;;;;;;;;;;5096839;28;20103;-63
2021/03/12 13:05:05;;;;;;;5.43;1.98;;;;;;;;;;5097039;28;20461;-63
2021/03/12 13:07:31;;;;;;;6.90;1.77;;;;;;;;;;5093349;28;20525;-63
2021/03/12 13:09:57;;;;;;;6.22;1.77;;;;;;;;;;5095044;28;20038;-64
2021/03/12 13:12:23;;;;;;;7.05;2.15;;;;;;;;;;5093095;28;20490;-63
2021/03/12 13:14:50;;;;;;;8.20;2.05;;;;;;;;;;5088716;28;20127;-63
2021/03/12 13:17:18;;;;;;;6.53;1.75;;;;;;;;;;5100699;28;20433;-64
2021/03/12 13:19:45;;;;;;;7.97;1.90;;;;;;;;;;5100945;28;20031;-63
2021/03/12 13:22:10;;;;;;;8.50;1.60;;;;;;;;;;5105517;28;20107;-64
2021/03/12 13:24:36;;;;;;;6.43;1.80;;;;;;;;;;5099423;28;20131;-63
2021/03/12 13:27:01;;;;;;;6.05;2.30;;;;;;;;;;5097356;28;20058;-64
2021/03/12 13:29:27;;;;;;;8.40;2.00;;;;;;;;;;5099754;28;20074;-63
2021/03/12 13:31:52;;;;;;;6.22;1.77;;;;;;;;;;5097460;28;20369;-63
2021/03/12 13:34:17;;;;;;;7.05;2.03;;;;;;;;;;5099012;28;20027;-63
2021/03/12 13:36:43;;;;;;;15.68;2.42;;;;;;;;;;5100696;28;20096;-62
2021/03/12 13:39:08;;;;;;;11.65;2.78;;;;;;;;;;5097344;28;20042;-61
2021/03/12 13:41:34;;;;;;;8.27;1.90;;;;;;;;;;5100471;28;20439;-65
2021/03/12 13:44:00;;;;;;;10.73;2.13;;;;;;;;;;5100865;28;20028;-65
2021/03/12 13:46:25;;;;;;;7.03;2.30;;;;;;;;;;5102181;28;20032;-65
2021/03/12 13:48:51;;;;;;;6.38;1.80;;;;;;;;;;5106034;28;20040;-66
2021/03/12 13:51:16;;;;;;;9.85;2.30;;;;;;;;;;5106372;28;20081;-65
2021/03/12 13:53:41;;;;;;;6.10;1.98;;;;;;;;;;5106838;28;20039;-66
2021/03/12 13:56:07;;;;;;;8.43;2.33;;;;;;;;;;5093404;28;20361;-65
2021/03/12 13:58:33;;;;;;;9.40;2.47;;;;;;;;;;5100285;28;20374;-64
2021/03/12 14:00:58;;;;;;;9.30;2.67;;;;;;;;;;5100367;28;20027;-65
2021/03/12 14:03:24;;;;;;;7.63;2.25;;;;;;;;;;5095744;28;20023;-65
2021/03/12 14:05:50;;;;;;;7.20;2.05;;;;;;;;;;5095283;28;20575;-64
2021/03/12 14:08:15;;;;;;;12.32;2.35;;;;;;;;;;5096078;28;20035;-64
2021/03/12 14:10:41;;;;;;;9.98;2.00;;;;;;;;;;5098234;28;20482;-64
2021/03/12 14:13:06;;;;;;;9.98;2.47;;;;;;;;;;5095865;28;20124;-65
2021/03/12 14:15:32;;;;;;;8.43;1.90;;;;;;;;;;5092814;28;21437;-65
2021/03/12 14:17:58;;;;;;;7.15;2.35;;;;;;;;;;5098684;28;20087;-64
2021/03/12 14:20:23;;;;;;;6.22;1.98;;;;;;;;;;5093068;28;20107;-64
2021/03/12 14:22:49;;;;;;;6.93;2.17;;;;;;;;;;5096103;28;20036;-64
2021/03/12 14:25:15;;;;;;;8.30;2.15;;;;;;;;;;5095654;28;20040;-64
2021/03/12 14:27:40;;;;;;;10.32;2.55;;;;;;;;;;5093093;28;20089;-64
2021/03/12 14:30:06;;;;;;;6.88;2.05;;;;;;;;;;5093006;28;20044;-64
2021/03/12 14:32:32;;;;;;;9.75;2.22;;;;;;;;;;5097855;28;20473;-64
2021/03/12 14:34:57;;;;;;;11.18;1.83;;;;;;;;;;5096918;28;20069;-63
2021/03/12 14:37:23;;;;;;;8.82;2.15;;;;;;;;;;5095745;28;20035;-64
2021/03/12 14:39:49;;;;;;;9.18;2.38;;;;;;;;;;5096184;28;20024;-65
2021/03/12 14:42:15;;;;;;;7.13;2.05;;;;;;;;;;5094528;28;20040;-64
2021/03/12 14:44:41;;;;;;;9.90;2.08;;;;;;;;;;5092827;28;20058;-64